sensor_id;sensor_type;location;lat;lon;timestamp;pressure;altitude;pressure_sealevel;temperature;humidity
45731;BME280;31440;48.584;13.460;2023-02-28T00:06:21;97519.66;;;-3.47;95.11
45731;BME280;31440;48.584;13.460;2023-02-28T00:09:26;97525.44;;;-3.20;91.36
45731;BME280;31440;48.584;13.460;2023-02-28T00:12:30;97520.28;;;-3.54;95.01
45731;BME280;31440;48.584;13.460;2023-02-28T00:15:36;97492.09;;;-3.63;96.07
45731;BME280;31440;48.584;13.460;2023-02-28T00:18:41;97509.03;;;-3.64;98.47
45731;BME280;31440;48.584;13.460;2023-02-28T00:21:46;97512.94;;;-3.75;98.72
45731;BME280;31440;48.584;13.460;2023-02-28T00:24:50;97499.59;;;-3.99;100.00
45731;BME280;31440;48.584;13.460;2023-02-28T00:27:56;97471.78;;;-3.63;97.48
45731;BME280;31440;48.584;13.460;2023-02-28T00:31:02;97505.41;;;-3.72;99.13
45731;BME280;31440;48.584;13.460;2023-02-28T00:34:07;97496.19;;;-3.37;98.84
45731;BME280;31440;48.584;13.460;2023-02-28T00:37:12;97497.50;;;-3.51;99.36
45731;BME280;31440;48.584;13.460;2023-02-28T00:40:16;97506.91;;;-3.80;100.00
45731;BME280;31440;48.584;13.460;2023-02-28T00:43:21;97499.28;;;-3.49;98.95
45731;BME280;31440;48.584;13.460;2023-02-28T00:46:25;97499.78;;;-3.60;98.94
45731;BME280;31440;48.584;13.460;2023-02-28T00:52:36;97499.41;;;-3.44;98.18
45731;BME280;31440;48.584;13.460;2023-02-28T00:55:40;97492.53;;;-3.47;97.66
45731;BME280;31440;48.584;13.460;2023-02-28T00:58:45;97486.69;;;-3.44;99.30
45731;BME280;31440;48.584;13.460;2023-02-28T01:01:49;97481.78;;;-3.36;98.59
45731;BME280;31440;48.584;13.460;2023-02-28T01:04:54;97489.59;;;-3.62;99.53
45731;BME280;31440;48.584;13.460;2023-02-28T01:07:59;97483.75;;;-3.58;99.98
45731;BME280;31440;48.584;13.460;2023-02-28T01:11:09;97473.28;;;-3.70;100.00
45731;BME280;31440;48.584;13.460;2023-02-28T01:14:17;97486.34;;;-3.56;100.00
45731;BME280;31440;48.584;13.460;2023-02-28T01:17:22;97479.31;;;-3.66;100.00
45731;BME280;31440;48.584;13.460;2023-02-28T01:20:27;97483.75;;;-3.58;100.00
45731;BME280;31440;48.584;13.460;2023-02-28T01:23:31;97478.38;;;-3.70;100.00
45731;BME280;31440;48.584;13.460;2023-02-28T01:26:37;97478.59;;;-3.61;100.00
45731;BME280;31440;48.584;13.460;2023-02-28T01:29:44;97477.09;;;-3.54;100.00
45731;BME280;31440;48.584;13.460;2023-02-28T01:32:49;97400.97;;;-4.13;100.00
45731;BME280;31440;48.584;13.460;2023-02-28T01:36:03;97475.56;;;-3.79;100.00
45731;BME280;31440;48.584;13.460;2023-02-28T01:39:08;97474.78;;;-3.77;100.00
45731;BME280;31440;48.584;13.460;2023-02-28T01:42:13;97470.88;;;-3.65;100.00
45731;BME280;31440;48.584;13.460;2023-02-28T01:45:22;97473.72;;;-3.53;100.00
45731;BME280;31440;48.584;13.460;2023-02-28T01:48:31;97464.56;;;-3.47;100.00
45731;BME280;31440;48.584;13.460;2023-02-28T01:51:44;97466.59;;;-3.66;100.00
45731;BME280;31440;48.584;13.460;2023-02-28T01:54:59;97456.66;;;-3.57;100.00
45731;BME280;31440;48.584;13.460;2023-02-28T01:58:05;97457.63;;;-3.85;100.00
45731;BME280;31440;48.584;13.460;2023-02-28T02:01:11;97451.31;;;-3.99;100.00
45731;BME280;31440;48.584;13.460;2023-02-28T02:04:27;97460.97;;;-3.55;100.00
45731;BME280;31440;48.584;13.460;2023-02-28T02:07:38;97451.50;;;-3.60;100.00
45731;BME280;31440;48.584;13.460;2023-02-28T02:10:52;97455.94;;;-3.85;100.00
45731;BME280;31440;48.584;13.460;2023-02-28T02:14:40;97456.63;;;-3.59;100.00
45731;BME280;31440;48.584;13.460;2023-02-28T02:17:48;97444.41;;;-3.72;100.00
45731;BME280;31440;48.584;13.460;2023-02-28T02:21:18;97451.34;;;-3.66;100.00
45731;BME280;31440;48.584;13.460;2023-02-28T02:24:54;97447.19;;;-3.94;100.00
45731;BME280;31440;48.584;13.460;2023-02-28T02:41:34;97449.97;;;-3.54;100.00
45731;BME280;31440;48.584;13.460;2023-02-28T02:44:47;97452.28;;;-3.94;100.00
45731;BME280;31440;48.584;13.460;2023-02-28T02:47:56;97443.00;;;-4.24;100.00
45731;BME280;31440;48.584;13.460;2023-02-28T02:51:07;97450.34;;;-3.71;100.00
45731;BME280;31440;48.584;13.460;2023-02-28T02:54:21;97453.19;;;-3.92;100.00
45731;BME280;31440;48.584;13.460;2023-02-28T02:57:35;97446.50;;;-4.20;100.00
45731;BME280;31440;48.584;13.460;2023-02-28T03:00:46;97447.09;;;-3.99;100.00
45731;BME280;31440;48.584;13.460;2023-02-28T03:03:59;97455.09;;;-3.85;100.00
45731;BME280;31440;48.584;13.460;2023-02-28T03:07:06;97459.34;;;-4.14;100.00
45731;BME280;31440;48.584;13.460;2023-02-28T03:10:32;97440.84;;;-3.80;98.19
45731;BME280;31440;48.584;13.460;2023-02-28T03:24:05;97457.94;;;-3.73;96.02
45731;BME280;31440;48.584;13.460;2023-02-28T03:27:18;97457.94;;;-3.73;96.57
45731;BME280;31440;48.584;13.460;2023-02-28T03:30:27;97452.72;;;-3.78;95.86
45731;BME280;31440;48.584;13.460;2023-02-28T03:33:37;97456.31;;;-3.38;93.20
45731;BME280;31440;48.584;13.460;2023-02-28T03:36:47;97448.59;;;-3.74;94.92
45731;BME280;31440;48.584;13.460;2023-02-28T03:40:01;97454.84;;;-3.63;94.04
45731;BME280;31440;48.584;13.460;2023-02-28T03:43:14;97459.56;;;-3.75;94.55
45731;BME280;31440;48.584;13.460;2023-02-28T03:46:25;97450.09;;;-3.82;96.01
45731;BME280;31440;48.584;13.460;2023-02-28T03:50:03;97444.19;;;-3.81;93.80
45731;BME280;31440;48.584;13.460;2023-02-28T03:53:17;97447.50;;;-4.14;98.38
45731;BME280;31440;48.584;13.460;2023-02-28T03:56:30;97450.38;;;-4.03;97.80
45731;BME280;31440;48.584;13.460;2023-02-28T03:59:39;97441.78;;;-3.75;95.08
45731;BME280;31440;48.584;13.460;2023-02-28T04:02:45;97444.75;;;-3.91;97.05
45731;BME280;31440;48.584;13.460;2023-02-28T04:05:54;97438.72;;;-3.95;96.15
45731;BME280;31440;48.584;13.460;2023-02-28T04:09:00;97438.19;;;-3.83;96.32
45731;BME280;31440;48.584;13.460;2023-02-28T04:12:05;97444.28;;;-4.08;97.00
45731;BME280;31440;48.584;13.460;2023-02-28T04:15:09;97439.13;;;-4.11;95.58
45731;BME280;31440;48.584;13.460;2023-02-28T04:18:15;97435.16;;;-4.01;94.55
45731;BME280;31440;48.584;13.460;2023-02-28T04:21:20;97432.56;;;-3.71;94.88
45731;BME280;31440;48.584;13.460;2023-02-28T04:24:26;97429.31;;;-4.29;97.46
45731;BME280;31440;48.584;13.460;2023-02-28T04:30:37;97437.84;;;-4.27;99.55
45731;BME280;31440;48.584;13.460;2023-02-28T04:33:42;97436.50;;;-4.44;100.00
45731;BME280;31440;48.584;13.460;2023-02-28T04:36:47;97429.25;;;-4.30;100.00
45731;BME280;31440;48.584;13.460;2023-02-28T04:40:15;97427.53;;;-4.31;98.32
45731;BME280;31440;48.584;13.460;2023-02-28T04:43:19;97433.94;;;-4.14;96.61
45731;BME280;31440;48.584;13.460;2023-02-28T04:46:24;97431.19;;;-3.92;96.58
45731;BME280;31440;48.584;13.460;2023-02-28T04:49:29;97435.50;;;-3.89;94.16
45731;BME280;31440;48.584;13.460;2023-02-28T04:52:33;97438.63;;;-3.99;94.17
45731;BME280;31440;48.584;13.460;2023-02-28T04:55:38;97442.59;;;-4.07;94.74
45731;BME280;31440;48.584;13.460;2023-02-28T04:58:44;97445.28;;;-4.03;95.64
45731;BME280;31440;48.584;13.460;2023-02-28T05:01:49;97444.25;;;-4.10;95.23
45731;BME280;31440;48.584;13.460;2023-02-28T05:04:54;97444.06;;;-4.17;97.14
45731;BME280;31440;48.584;13.460;2023-02-28T05:07:59;97423.00;;;-4.43;96.97
45731;BME280;31440;48.584;13.460;2023-02-28T05:11:05;97449.53;;;-4.32;97.46
45731;BME280;31440;48.584;13.460;2023-02-28T05:14:11;97453.34;;;-4.46;97.46
45731;BME280;31440;48.584;13.460;2023-02-28T05:17:16;97451.63;;;-4.19;96.12
45731;BME280;31440;48.584;13.460;2023-02-28T05:20:21;97443.47;;;-4.07;94.55
45731;BME280;31440;48.584;13.460;2023-02-28T05:26:35;97451.25;;;-4.31;95.06
45731;BME280;31440;48.584;13.460;2023-02-28T05:32:51;97452.81;;;-4.06;93.50
45731;BME280;31440;48.584;13.460;2023-02-28T05:35:55;97451.31;;;-3.99;93.13
45731;BME280;31440;48.584;13.460;2023-02-28T05:39:00;97445.59;;;-3.91;93.79
45731;BME280;31440;48.584;13.460;2023-02-28T05:45:10;97432.81;;;-4.25;95.07
45731;BME280;31440;48.584;13.460;2023-02-28T05:48:18;97429.66;;;-4.47;96.14
45731;BME280;31440;48.584;13.460;2023-02-28T05:51:22;97458.28;;;-4.52;98.25
45731;BME280;31440;48.584;13.460;2023-02-28T05:54:27;97471.03;;;-4.21;95.88
45731;BME280;31440;48.584;13.460;2023-02-28T05:57:31;97473.19;;;-4.34;97.49
45731;BME280;31440;48.584;13.460;2023-02-28T06:00:36;97463.75;;;-4.38;96.50
45731;BME280;31440;48.584;13.460;2023-02-28T06:03:40;97474.91;;;-4.33;96.62
45731;BME280;31440;48.584;13.460;2023-02-28T06:06:46;97474.63;;;-4.42;97.69
45731;BME280;31440;48.584;13.460;2023-02-28T06:09:51;97426.41;;;-4.71;96.79
45731;BME280;31440;48.584;13.460;2023-02-28T06:12:59;97480.84;;;-4.31;96.82
45731;BME280;31440;48.584;13.460;2023-02-28T06:16:04;97481.44;;;-4.68;99.58
45731;BME280;31440;48.584;13.460;2023-02-28T06:19:10;97475.56;;;-4.39;98.19
45731;BME280;31440;48.584;13.460;2023-02-28T06:22:14;97470.31;;;-4.45;97.78
45731;BME280;31440;48.584;13.460;2023-02-28T06:25:19;97488.19;;;-4.12;97.43
45731;BME280;31440;48.584;13.460;2023-02-28T06:28:25;97445.97;;;-4.67;95.75
45731;BME280;31440;48.584;13.460;2023-02-28T06:31:30;97487.66;;;-4.30;98.68
45731;BME280;31440;48.584;13.460;2023-02-28T06:34:35;97488.13;;;-4.15;99.18
45731;BME280;31440;48.584;13.460;2023-02-28T06:37:40;97500.06;;;-4.11;96.36
45731;BME280;31440;48.584;13.460;2023-02-28T06:40:53;97499.59;;;-4.28;96.62
45731;BME280;31440;48.584;13.460;2023-02-28T06:43:57;97496.47;;;-4.19;95.37
45731;BME280;31440;48.584;13.460;2023-02-28T06:47:03;97482.56;;;-4.02;93.56
45731;BME280;31440;48.584;13.460;2023-02-28T06:53:14;97505.91;;;-3.85;93.61
45731;BME280;31440;48.584;13.460;2023-02-28T06:56:19;97518.97;;;-3.71;92.60
45731;BME280;31440;48.584;13.460;2023-02-28T06:59:25;97518.66;;;-3.52;91.40
45731;BME280;31440;48.584;13.460;2023-02-28T07:02:29;97528.75;;;-3.55;90.87
45731;BME280;31440;48.584;13.460;2023-02-28T07:05:35;97523.16;;;-3.42;91.07
45731;BME280;31440;48.584;13.460;2023-02-28T07:08:39;97523.41;;;-3.33;88.17
45731;BME280;31440;48.584;13.460;2023-02-28T07:11:45;97524.97;;;-3.05;87.38
45731;BME280;31440;48.584;13.460;2023-02-28T07:14:49;97524.91;;;-3.40;91.77
45731;BME280;31440;48.584;13.460;2023-02-28T07:17:54;97525.44;;;-3.53;88.57
45731;BME280;31440;48.584;13.460;2023-02-28T07:21:01;97517.38;;;-3.36;88.83
45731;BME280;31440;48.584;13.460;2023-02-28T07:24:06;97531.22;;;-3.27;87.76
45731;BME280;31440;48.584;13.460;2023-02-28T07:27:10;97533.84;;;-3.22;87.01
45731;BME280;31440;48.584;13.460;2023-02-28T07:30:15;97520.84;;;-3.00;87.83
45731;BME280;31440;48.584;13.460;2023-02-28T07:33:22;97496.44;;;-2.93;84.84
45731;BME280;31440;48.584;13.460;2023-02-28T07:36:28;97529.41;;;-2.62;86.87
45731;BME280;31440;48.584;13.460;2023-02-28T07:39:32;97536.22;;;-2.61;84.45
45731;BME280;31440;48.584;13.460;2023-02-28T07:42:38;97526.28;;;-2.50;85.79
45731;BME280;31440;48.584;13.460;2023-02-28T07:45:43;97528.50;;;-2.28;83.39
45731;BME280;31440;48.584;13.460;2023-02-28T07:48:47;97526.25;;;-2.14;80.92
45731;BME280;31440;48.584;13.460;2023-02-28T07:51:52;97519.84;;;-2.35;79.19
45731;BME280;31440;48.584;13.460;2023-02-28T07:54:56;97535.13;;;-2.35;80.87
45731;BME280;31440;48.584;13.460;2023-02-28T07:58:01;97527.72;;;-2.25;77.83
45731;BME280;31440;48.584;13.460;2023-02-28T08:01:10;97521.00;;;-2.22;78.16
45731;BME280;31440;48.584;13.460;2023-02-28T08:04:15;97526.34;;;-2.10;79.83
45731;BME280;31440;48.584;13.460;2023-02-28T08:07:19;97524.56;;;-2.14;77.85
45731;BME280;31440;48.584;13.460;2023-02-28T08:10:24;97522.81;;;-2.15;76.02
45731;BME280;31440;48.584;13.460;2023-02-28T08:13:29;97525.34;;;-1.76;76.13
45731;BME280;31440;48.584;13.460;2023-02-28T08:16:34;97518.78;;;-1.64;75.45
45731;BME280;31440;48.584;13.460;2023-02-28T08:19:39;97517.88;;;-1.68;77.55
45731;BME280;31440;48.584;13.460;2023-02-28T08:25:54;97525.84;;;-1.51;73.28
45731;BME280;31440;48.584;13.460;2023-02-28T08:28:59;97518.16;;;-1.53;76.11
45731;BME280;31440;48.584;13.460;2023-02-28T08:32:06;97518.81;;;-1.61;75.49
45731;BME280;31440;48.584;13.460;2023-02-28T08:35:24;97518.50;;;-1.35;73.90
45731;BME280;31440;48.584;13.460;2023-02-28T08:38:28;97521.97;;;-1.31;74.30
45731;BME280;31440;48.584;13.460;2023-02-28T08:41:33;97509.38;;;-1.22;72.29
45731;BME280;31440;48.584;13.460;2023-02-28T08:44:38;97523.19;;;-0.59;70.59
45731;BME280;31440;48.584;13.460;2023-02-28T08:47:42;97466.94;;;-0.63;69.28
45731;BME280;31440;48.584;13.460;2023-02-28T08:51:05;97522.34;;;0.02;68.17
45731;BME280;31440;48.584;13.460;2023-02-28T08:54:12;97518.97;;;0.03;67.72
45731;BME280;31440;48.584;13.460;2023-02-28T08:57:17;97528.28;;;-0.01;65.54
45731;BME280;31440;48.584;13.460;2023-02-28T09:00:22;97511.13;;;0.60;64.78
45731;BME280;31440;48.584;13.460;2023-02-28T09:03:26;97518.69;;;0.50;64.72
45731;BME280;31440;48.584;13.460;2023-02-28T09:06:34;97527.31;;;0.58;63.20
45731;BME280;31440;48.584;13.460;2023-02-28T09:09:38;97538.44;;;0.60;63.95
45731;BME280;31440;48.584;13.460;2023-02-28T09:12:57;97532.84;;;0.96;64.32
45731;BME280;31440;48.584;13.460;2023-02-28T09:16:03;97538.22;;;1.26;61.60
45731;BME280;31440;48.584;13.460;2023-02-28T09:19:11;97539.22;;;1.39;62.23
45731;BME280;31440;48.584;13.460;2023-02-28T09:22:16;97535.28;;;1.87;61.14
45731;BME280;31440;48.584;13.460;2023-02-28T09:25:21;97541.97;;;1.66;59.67
45731;BME280;31440;48.584;13.460;2023-02-28T09:28:25;97526.41;;;1.43;59.54
45731;BME280;31440;48.584;13.460;2023-02-28T09:31:30;97543.06;;;2.03;58.60
45731;BME280;31440;48.584;13.460;2023-02-28T09:34:34;97535.53;;;2.35;57.81
45731;BME280;31440;48.584;13.460;2023-02-28T09:37:41;97535.59;;;2.47;56.33
45731;BME280;31440;48.584;13.460;2023-02-28T09:40:49;97550.09;;;2.39;56.12
45731;BME280;31440;48.584;13.460;2023-02-28T09:43:59;97541.69;;;2.87;56.65
45731;BME280;31440;48.584;13.460;2023-02-28T09:47:21;97549.41;;;2.87;53.89
45731;BME280;31440;48.584;13.460;2023-02-28T09:50:40;97553.50;;;2.38;54.35
45731;BME280;31440;48.584;13.460;2023-02-28T09:53:46;97547.72;;;3.08;55.29
45731;BME280;31440;48.584;13.460;2023-02-28T09:57:20;97552.91;;;3.14;54.89
45731;BME280;31440;48.584;13.460;2023-02-28T10:00:33;97537.47;;;3.26;53.95
45731;BME280;31440;48.584;13.460;2023-02-28T10:03:47;97562.31;;;3.21;54.00
45731;BME280;31440;48.584;13.460;2023-02-28T10:06:53;97560.66;;;3.69;54.19
45731;BME280;31440;48.584;13.460;2023-02-28T10:09:59;97564.94;;;3.53;53.85
45731;BME280;31440;48.584;13.460;2023-02-28T10:13:15;97565.63;;;4.60;52.03
45731;BME280;31440;48.584;13.460;2023-02-28T10:16:22;97576.03;;;4.22;53.04
45731;BME280;31440;48.584;13.460;2023-02-28T10:19:38;97528.91;;;4.05;51.96
45731;BME280;31440;48.584;13.460;2023-02-28T10:25:58;97573.34;;;4.61;51.14
45731;BME280;31440;48.584;13.460;2023-02-28T10:29:03;97572.44;;;4.76;50.55
45731;BME280;31440;48.584;13.460;2023-02-28T10:32:11;97574.75;;;5.23;52.94
45731;BME280;31440;48.584;13.460;2023-02-28T10:35:25;97571.41;;;5.06;50.74
45731;BME280;31440;48.584;13.460;2023-02-28T10:38:35;97576.75;;;4.68;50.44
45731;BME280;31440;48.584;13.460;2023-02-28T10:41:42;97577.44;;;4.99;49.89
45731;BME280;31440;48.584;13.460;2023-02-28T10:44:47;97580.28;;;4.35;51.59
45731;BME280;31440;48.584;13.460;2023-02-28T10:51:00;97568.91;;;4.91;49.70
45731;BME280;31440;48.584;13.460;2023-02-28T10:54:06;97572.34;;;4.90;49.36
45731;BME280;31440;48.584;13.460;2023-02-28T10:57:23;97571.16;;;5.46;49.87
45731;BME280;31440;48.584;13.460;2023-02-28T11:00:34;97568.38;;;5.72;48.38
45731;BME280;31440;48.584;13.460;2023-02-28T11:03:39;97560.38;;;6.04;49.65
45731;BME280;31440;48.584;13.460;2023-02-28T11:06:43;97553.94;;;5.49;49.19
45731;BME280;31440;48.584;13.460;2023-02-28T11:09:52;97550.44;;;5.58;48.19
45731;BME280;31440;48.584;13.460;2023-02-28T11:12:58;97561.47;;;5.74;49.78
45731;BME280;31440;48.584;13.460;2023-02-28T11:16:10;97557.50;;;6.34;48.60
45731;BME280;31440;48.584;13.460;2023-02-28T11:19:20;97554.06;;;6.27;46.83
45731;BME280;31440;48.584;13.460;2023-02-28T11:22:28;97554.03;;;6.35;47.17
45731;BME280;31440;48.584;13.460;2023-02-28T11:25:36;97550.75;;;6.94;48.51
45731;BME280;31440;48.584;13.460;2023-02-28T11:28:42;97553.09;;;6.42;48.84
45731;BME280;31440;48.584;13.460;2023-02-28T11:32:16;97542.06;;;6.97;46.96
45731;BME280;31440;48.584;13.460;2023-02-28T11:35:33;97541.53;;;6.74;46.87
45731;BME280;31440;48.584;13.460;2023-02-28T11:38:41;97547.22;;;7.58;45.14
45731;BME280;31440;48.584;13.460;2023-02-28T11:42:07;97542.72;;;6.45;47.76
45731;BME280;31440;48.584;13.460;2023-02-28T11:45:23;97535.22;;;7.51;46.39
45731;BME280;31440;48.584;13.460;2023-02-28T11:48:46;97537.44;;;7.20;43.46
45731;BME280;31440;48.584;13.460;2023-02-28T11:55:45;97530.91;;;7.52;43.53
45731;BME280;31440;48.584;13.460;2023-02-28T11:59:10;97534.31;;;7.55;44.25
45731;BME280;31440;48.584;13.460;2023-02-28T12:02:24;97523.94;;;8.06;44.37
45731;BME280;31440;48.584;13.460;2023-02-28T12:05:39;97531.84;;;6.91;46.01
45731;BME280;31440;48.584;13.460;2023-02-28T12:09:04;97521.28;;;8.10;43.73
45731;BME280;31440;48.584;13.460;2023-02-28T12:19:20;97517.53;;;8.71;42.01
45731;BME280;31440;48.584;13.460;2023-02-28T12:29:32;97516.91;;;8.14;43.30
45731;BME280;31440;48.584;13.460;2023-02-28T12:32:41;97511.84;;;8.54;40.57
45731;BME280;31440;48.584;13.460;2023-02-28T12:35:56;97507.53;;;9.32;40.95
45731;BME280;31440;48.584;13.460;2023-02-28T12:39:10;97518.34;;;7.83;42.17
45731;BME280;31440;48.584;13.460;2023-02-28T12:42:25;97503.75;;;8.69;41.19
45731;BME280;31440;48.584;13.460;2023-02-28T12:45:49;97503.63;;;9.51;40.74
45731;BME280;31440;48.584;13.460;2023-02-28T12:48:56;97499.00;;;8.48;40.78
45731;BME280;31440;48.584;13.460;2023-02-28T12:52:03;97495.13;;;8.69;42.47
45731;BME280;31440;48.584;13.460;2023-02-28T12:55:15;97492.38;;;9.86;41.27
45731;BME280;31440;48.584;13.460;2023-02-28T12:58:37;97488.22;;;9.80;41.07
45731;BME280;31440;48.584;13.460;2023-02-28T13:02:00;97494.16;;;9.48;41.70
45731;BME280;31440;48.584;13.460;2023-02-28T13:05:42;97487.09;;;9.18;40.66
45731;BME280;31440;48.584;13.460;2023-02-28T13:09:01;97491.84;;;9.72;41.34
45731;BME280;31440;48.584;13.460;2023-02-28T13:12:14;97486.25;;;10.21;38.56
45731;BME280;31440;48.584;13.460;2023-02-28T13:15:25;97501.50;;;8.06;41.26
45731;BME280;31440;48.584;13.460;2023-02-28T13:18:38;97490.44;;;9.60;41.00
45731;BME280;31440;48.584;13.460;2023-02-28T13:21:44;97485.59;;;10.14;40.78
45731;BME280;31440;48.584;13.460;2023-02-28T13:24:50;97478.25;;;10.29;38.99
45731;BME280;31440;48.584;13.460;2023-02-28T13:27:55;97491.19;;;10.32;40.32
45731;BME280;31440;48.584;13.460;2023-02-28T13:31:05;97483.06;;;9.06;40.50
45731;BME280;31440;48.584;13.460;2023-02-28T13:34:14;97491.34;;;9.93;40.95
45731;BME280;31440;48.584;13.460;2023-02-28T13:40:33;97491.56;;;9.11;42.13
45731;BME280;31440;48.584;13.460;2023-02-28T13:44:45;97496.88;;;9.81;39.45
45731;BME280;31440;48.584;13.460;2023-02-28T13:47:40;97493.66;;;9.33;40.70
45731;BME280;31440;48.584;13.460;2023-02-28T13:50:47;97478.16;;;9.30;40.41
45731;BME280;31440;48.584;13.460;2023-02-28T13:54:00;97499.47;;;8.67;42.29
45731;BME280;31440;48.584;13.460;2023-02-28T13:57:40;97491.38;;;9.56;40.88
45731;BME280;31440;48.584;13.460;2023-02-28T14:07:57;97498.41;;;6.77;45.75
45731;BME280;31440;48.584;13.460;2023-02-28T14:11:06;97507.34;;;7.15;44.78
45731;BME280;31440;48.584;13.460;2023-02-28T14:20:47;97492.28;;;7.92;43.58
45731;BME280;31440;48.584;13.460;2023-02-28T14:24:28;97496.19;;;9.36;41.33
45731;BME280;31440;48.584;13.460;2023-02-28T14:27:43;97498.75;;;8.16;43.63
45731;BME280;31440;48.584;13.460;2023-02-28T14:31:09;97497.47;;;8.79;42.47
45731;BME280;31440;48.584;13.460;2023-02-28T14:40:33;97504.63;;;7.24;46.26
45731;BME280;31440;48.584;13.460;2023-02-28T14:46:47;97523.88;;;5.45;48.42
45731;BME280;31440;48.584;13.460;2023-02-28T14:49:52;97517.72;;;4.15;51.78
45731;BME280;31440;48.584;13.460;2023-02-28T14:52:57;97499.38;;;4.86;50.90
45731;BME280;31440;48.584;13.460;2023-02-28T14:56:03;97519.44;;;4.13;53.94
45731;BME280;31440;48.584;13.460;2023-02-28T14:59:32;97513.41;;;4.23;53.67
45731;BME280;31440;48.584;13.460;2023-02-28T15:02:37;97522.03;;;4.02;53.56
45731;BME280;31440;48.584;13.460;2023-02-28T15:05:54;97526.34;;;3.44;53.75
45731;BME280;31440;48.584;13.460;2023-02-28T15:09:07;97518.63;;;3.38;53.84
45731;BME280;31440;48.584;13.460;2023-02-28T15:12:14;97526.34;;;3.57;54.45
45731;BME280;31440;48.584;13.460;2023-02-28T15:15:20;97513.50;;;3.16;55.64
45731;BME280;31440;48.584;13.460;2023-02-28T15:18:49;97523.78;;;3.15;55.19
45731;BME280;31440;48.584;13.460;2023-02-28T15:21:59;97533.19;;;3.11;56.38
45731;BME280;31440;48.584;13.460;2023-02-28T15:25:05;97529.75;;;2.99;56.79
45731;BME280;31440;48.584;13.460;2023-02-28T15:28:17;97531.41;;;2.80;58.83
45731;BME280;31440;48.584;13.460;2023-02-28T15:31:31;97529.69;;;2.76;58.00
45731;BME280;31440;48.584;13.460;2023-02-28T15:34:54;97534.84;;;2.85;59.53
45731;BME280;31440;48.584;13.460;2023-02-28T15:38:18;97533.16;;;2.82;59.42
45731;BME280;31440;48.584;13.460;2023-02-28T15:44:34;97535.47;;;2.20;60.79
45731;BME280;31440;48.584;13.460;2023-02-28T15:47:45;97528.63;;;2.21;62.99
45731;BME280;31440;48.584;13.460;2023-02-28T15:50:54;97542.06;;;1.75;62.90
45731;BME280;31440;48.584;13.460;2023-02-28T15:54:01;97548.06;;;1.82;64.18
45731;BME280;31440;48.584;13.460;2023-02-28T15:57:10;97551.31;;;1.57;65.91
45731;BME280;31440;48.584;13.460;2023-02-28T16:00:23;97537.84;;;1.87;65.86
45731;BME280;31440;48.584;13.460;2023-02-28T16:03:38;97547.19;;;1.81;66.29
45731;BME280;31440;48.584;13.460;2023-02-28T16:09:49;97548.75;;;1.57;67.69
45731;BME280;31440;48.584;13.460;2023-02-28T16:12:55;97548.44;;;1.20;69.93
45731;BME280;31440;48.584;13.460;2023-02-28T16:16:00;97545.38;;;1.65;67.80
45731;BME280;31440;48.584;13.460;2023-02-28T16:19:07;97544.31;;;1.37;69.99
45731;BME280;31440;48.584;13.460;2023-02-28T16:22:12;97547.78;;;1.44;69.65
45731;BME280;31440;48.584;13.460;2023-02-28T16:25:20;97547.50;;;1.12;70.55
45731;BME280;31440;48.584;13.460;2023-02-28T16:28:29;97535.47;;;1.02;72.92
45731;BME280;31440;48.584;13.460;2023-02-28T16:31:37;97538.91;;;1.04;74.26
45731;BME280;31440;48.584;13.460;2023-02-28T16:34:43;97530.84;;;0.70;75.37
45731;BME280;31440;48.584;13.460;2023-02-28T16:37:50;97541.75;;;0.54;74.84
45731;BME280;31440;48.584;13.460;2023-02-28T16:40:58;97546.75;;;1.21;74.33
45731;BME280;31440;48.584;13.460;2023-02-28T16:44:09;97537.59;;;0.62;75.45
45731;BME280;31440;48.584;13.460;2023-02-28T16:47:14;97540.16;;;0.61;76.43
45731;BME280;31440;48.584;13.460;2023-02-28T16:50:22;97551.84;;;1.19;75.21
45731;BME280;31440;48.584;13.460;2023-02-28T16:53:27;97557.47;;;0.88;76.53
45731;BME280;31440;48.584;13.460;2023-02-28T16:56:32;97553.44;;;0.34;79.16
45731;BME280;31440;48.584;13.460;2023-02-28T16:59:38;97567.38;;;0.56;78.99
45731;BME280;31440;48.584;13.460;2023-02-28T17:02:42;97569.19;;;0.64;77.22
45731;BME280;31440;48.584;13.460;2023-02-28T17:05:47;97570.63;;;0.42;81.81
45731;BME280;31440;48.584;13.460;2023-02-28T17:11:58;97580.13;;;0.53;80.09
45731;BME280;31440;48.584;13.460;2023-02-28T17:15:03;97580.88;;;0.44;79.75
45731;BME280;31440;48.584;13.460;2023-02-28T17:18:12;97590.56;;;0.69;80.47
45731;BME280;31440;48.584;13.460;2023-02-28T17:21:19;97584.63;;;0.72;79.10
45731;BME280;31440;48.584;13.460;2023-02-28T17:24:23;97588.00;;;0.68;79.37
45731;BME280;31440;48.584;13.460;2023-02-28T17:27:35;97600.88;;;0.74;79.77
45731;BME280;31440;48.584;13.460;2023-02-28T17:30:40;97568.13;;;0.47;80.15
45731;BME280;31440;48.584;13.460;2023-02-28T17:33:51;97595.66;;;0.66;81.26
45731;BME280;31440;48.584;13.460;2023-02-28T17:36:56;97591.84;;;0.35;83.13
45731;BME280;31440;48.584;13.460;2023-02-28T17:40:02;97598.25;;;0.69;80.82
45731;BME280;31440;48.584;13.460;2023-02-28T17:43:07;97589.44;;;0.46;81.04
45731;BME280;31440;48.584;13.460;2023-02-28T17:46:16;97600.31;;;0.28;84.82
45731;BME280;31440;48.584;13.460;2023-02-28T17:49:23;97546.44;;;0.18;86.08
45731;BME280;31440;48.584;13.460;2023-02-28T17:52:28;97600.34;;;0.31;84.87
45731;BME280;31440;48.584;13.460;2023-02-28T17:55:33;97610.00;;;0.55;84.18
45731;BME280;31440;48.584;13.460;2023-02-28T17:58:38;97592.22;;;0.01;84.31
45731;BME280;31440;48.584;13.460;2023-02-28T18:01:43;97602.41;;;0.60;82.39
45731;BME280;31440;48.584;13.460;2023-02-28T18:04:47;97608.03;;;0.33;85.21
45731;BME280;31440;48.584;13.460;2023-02-28T18:07:52;97611.88;;;0.67;81.18
45731;BME280;31440;48.584;13.460;2023-02-28T18:10:57;97606.38;;;0.36;84.54
45731;BME280;31440;48.584;13.460;2023-02-28T18:14:01;97608.00;;;0.30;86.45
45731;BME280;31440;48.584;13.460;2023-02-28T18:17:06;97606.44;;;0.41;82.92
45731;BME280;31440;48.584;13.460;2023-02-28T18:20:11;97601.09;;;0.24;85.76
45731;BME280;31440;48.584;13.460;2023-02-28T18:23:16;97602.19;;;0.43;84.47